sensor_id;sensor_type;location;lat;lon;timestamp;temperature;humidity
41262;DHT22;29629;52.532;13.352;2023-06-10T00:00:28;18.10;99.90
41262;DHT22;29629;52.532;13.352;2023-06-10T00:02:57;18.10;99.90
41262;DHT22;29629;52.532;13.352;2023-06-10T00:05:24;18.00;99.90
41262;DHT22;29629;52.532;13.352;2023-06-10T00:07:56;18.00;99.90
41262;DHT22;29629;52.532;13.352;2023-06-10T00:10:24;18.10;99.90
41262;DHT22;29629;52.532;13.352;2023-06-10T00:12:51;18.00;99.90
41262;DHT22;29629;52.532;13.352;2023-06-10T00:15:18;18.00;99.90
41262;DHT22;29629;52.532;13.352;2023-06-10T00:17:45;17.90;99.90
41262;DHT22;29629;52.532;13.352;2023-06-10T00:20:12;17.90;99.90
41262;DHT22;29629;52.532;13.352;2023-06-10T00:22:40;17.90;99.90
41262;DHT22;29629;52.532;13.352;2023-06-10T00:25:12;17.80;99.90
41262;DHT22;29629;52.532;13.352;2023-06-10T00:27:39;17.90;99.90
41262;DHT22;29629;52.532;13.352;2023-06-10T00:30:07;17.90;99.90
41262;DHT22;29629;52.532;13.352;2023-06-10T00:32:35;17.90;99.90
41262;DHT22;29629;52.532;13.352;2023-06-10T00:35:02;17.80;99.90
41262;DHT22;29629;52.532;13.352;2023-06-10T00:37:29;17.80;99.90
41262;DHT22;29629;52.532;13.352;2023-06-10T00:39:57;17.80;99.90
41262;DHT22;29629;52.532;13.352;2023-06-10T00:42:26;17.80;99.90
41262;DHT22;29629;52.532;13.352;2023-06-10T00:44:54;17.70;99.90
41262;DHT22;29629;52.532;13.352;2023-06-10T00:47:21;17.70;99.90
41262;DHT22;29629;52.532;13.352;2023-06-10T00:49:49;17.70;99.90
41262;DHT22;29629;52.532;13.352;2023-06-10T00:52:18;17.60;99.90
41262;DHT22;29629;52.532;13.352;2023-06-10T00:54:46;17.50;99.90
41262;DHT22;29629;52.532;13.352;2023-06-10T00:57:13;17.60;99.90
41262;DHT22;29629;52.532;13.352;2023-06-10T00:59:44;17.60;99.90
41262;DHT22;29629;52.532;13.352;2023-06-10T01:02:13;17.50;99.90
41262;DHT22;29629;52.532;13.352;2023-06-10T01:04:40;17.60;99.90
41262;DHT22;29629;52.532;13.352;2023-06-10T01:07:12;17.60;99.90
41262;DHT22;29629;52.532;13.352;2023-06-10T01:09:49;17.50;99.90
41262;DHT22;29629;52.532;13.352;2023-06-10T01:12:26;17.50;99.90
41262;DHT22;29629;52.532;13.352;2023-06-10T01:14:58;17.40;99.90
41262;DHT22;29629;52.532;13.352;2023-06-10T01:17:26;17.40;99.90
41262;DHT22;29629;52.532;13.352;2023-06-10T01:19:54;17.20;99.90
41262;DHT22;29629;52.532;13.352;2023-06-10T01:22:24;17.30;99.90
41262;DHT22;29629;52.532;13.352;2023-06-10T01:24:52;17.30;99.90
41262;DHT22;29629;52.532;13.352;2023-06-10T01:27:21;17.30;99.90
41262;DHT22;29629;52.532;13.352;2023-06-10T01:29:54;17.20;99.90
41262;DHT22;29629;52.532;13.352;2023-06-10T01:32:26;17.10;99.90
41262;DHT22;29629;52.532;13.352;2023-06-10T01:34:54;17.10;99.90
41262;DHT22;29629;52.532;13.352;2023-06-10T01:37:24;17.20;99.90
41262;DHT22;29629;52.532;13.352;2023-06-10T01:39:55;17.10;99.90
41262;DHT22;29629;52.532;13.352;2023-06-10T01:42:23;17.10;99.90
41262;DHT22;29629;52.532;13.352;2023-06-10T01:44:51;17.10;99.90
41262;DHT22;29629;52.532;13.352;2023-06-10T01:47:18;17.00;99.90
41262;DHT22;29629;52.532;13.352;2023-06-10T01:49:45;17.10;99.90
41262;DHT22;29629;52.532;13.352;2023-06-10T01:52:12;17.00;99.90
41262;DHT22;29629;52.532;13.352;2023-06-10T01:54:41;17.10;99.90
41262;DHT22;29629;52.532;13.352;2023-06-10T01:57:08;17.00;99.90
41262;DHT22;29629;52.532;13.352;2023-06-10T01:59:35;17.00;99.90
41262;DHT22;29629;52.532;13.352;2023-06-10T02:02:04;17.00;99.90
41262;DHT22;29629;52.532;13.352;2023-06-10T02:04:31;17.00;99.90
41262;DHT22;29629;52.532;13.352;2023-06-10T02:06:58;16.90;99.90
41262;DHT22;29629;52.532;13.352;2023-06-10T02:09:29;17.00;99.90
41262;DHT22;29629;52.532;13.352;2023-06-10T02:11:58;16.90;99.90
41262;DHT22;29629;52.532;13.352;2023-06-10T02:14:25;16.90;99.90
41262;DHT22;29629;52.532;13.352;2023-06-10T02:16:52;16.90;99.90
41262;DHT22;29629;52.532;13.352;2023-06-10T02:19:21;16.90;99.90
41262;DHT22;29629;52.532;13.352;2023-06-10T02:21:49;16.90;99.90
41262;DHT22;29629;52.532;13.352;2023-06-10T02:24:16;16.90;99.90
41262;DHT22;29629;52.532;13.352;2023-06-10T02:26:43;16.80;99.90
41262;DHT22;29629;52.532;13.352;2023-06-10T02:29:12;16.80;99.90
41262;DHT22;29629;52.532;13.352;2023-06-10T02:31:39;16.80;99.90
41262;DHT22;29629;52.532;13.352;2023-06-10T02:34:06;16.80;99.90
41262;DHT22;29629;52.532;13.352;2023-06-10T02:36:34;16.90;99.90
41262;DHT22;29629;52.532;13.352;2023-06-10T02:39:01;16.80;99.90
41262;DHT22;29629;52.532;13.352;2023-06-10T02:41:29;16.80;99.90
41262;DHT22;29629;52.532;13.352;2023-06-10T02:43:56;16.80;99.90
41262;DHT22;29629;52.532;13.352;2023-06-10T02:46:25;16.80;99.90
41262;DHT22;29629;52.532;13.352;2023-06-10T02:48:51;16.80;99.90
41262;DHT22;29629;52.532;13.352;2023-06-10T02:51:18;16.70;99.90
41262;DHT22;29629;52.532;13.352;2023-06-10T02:53:46;16.70;99.90
41262;DHT22;29629;52.532;13.352;2023-06-10T02:56:15;16.70;99.90
41262;DHT22;29629;52.532;13.352;2023-06-10T02:58:42;16.60;99.90
41262;DHT22;29629;52.532;13.352;2023-06-10T03:01:09;16.60;99.90
41262;DHT22;29629;52.532;13.352;2023-06-10T03:03:37;16.60;99.90
41262;DHT22;29629;52.532;13.352;2023-06-10T03:06:07;16.60;99.90
41262;DHT22;29629;52.532;13.352;2023-06-10T03:08:35;16.60;99.90
41262;DHT22;29629;52.532;13.352;2023-06-10T03:11:03;16.50;99.90
41262;DHT22;29629;52.532;13.352;2023-06-10T03:13:30;16.50;99.90
41262;DHT22;29629;52.532;13.352;2023-06-10T03:15:57;16.60;99.90
41262;DHT22;29629;52.532;13.352;2023-06-10T03:18:26;16.50;99.90
41262;DHT22;29629;52.532;13.352;2023-06-10T03:20:55;16.60;99.90
41262;DHT22;29629;52.532;13.352;2023-06-10T03:23:22;16.50;99.90
41262;DHT22;29629;52.532;13.352;2023-06-10T03:25:49;16.50;99.90
41262;DHT22;29629;52.532;13.352;2023-06-10T03:28:16;16.50;99.90
41262;DHT22;29629;52.532;13.352;2023-06-10T03:30:43;16.60;99.90
41262;DHT22;29629;52.532;13.352;2023-06-10T03:33:10;16.60;99.90
41262;DHT22;29629;52.532;13.352;2023-06-10T03:35:37;16.70;99.90
41262;DHT22;29629;52.532;13.352;2023-06-10T03:38:05;16.70;99.90
41262;DHT22;29629;52.532;13.352;2023-06-10T03:40:32;16.60;99.90
41262;DHT22;29629;52.532;13.352;2023-06-10T03:43:00;16.60;99.90
41262;DHT22;29629;52.532;13.352;2023-06-10T03:45:27;16.50;99.90
41262;DHT22;29629;52.532;13.352;2023-06-10T03:47:54;16.60;99.90
41262;DHT22;29629;52.532;13.352;2023-06-10T03:50:23;16.60;99.90
41262;DHT22;29629;52.532;13.352;2023-06-10T03:52:50;16.60;99.90
41262;DHT22;29629;52.532;13.352;2023-06-10T03:55:18;16.60;99.90
41262;DHT22;29629;52.532;13.352;2023-06-10T03:57:47;16.60;99.90
41262;DHT22;29629;52.532;13.352;2023-06-10T04:00:15;16.60;99.90
41262;DHT22;29629;52.532;13.352;2023-06-10T04:02:43;16.70;99.90
41262;DHT22;29629;52.532;13.352;2023-06-10T04:05:13;16.70;99.90
41262;DHT22;29629;52.532;13.352;2023-06-10T04:07:40;16.70;99.90
41262;DHT22;29629;52.532;13.352;2023-06-10T04:10:08;16.70;99.90
41262;DHT22;29629;52.532;13.352;2023-06-10T04:12:37;16.80;99.90
41262;DHT22;29629;52.532;13.352;2023-06-10T04:15:06;16.70;99.90
41262;DHT22;29629;52.532;13.352;2023-06-10T04:17:33;16.70;99.90
41262;DHT22;29629;52.532;13.352;2023-06-10T04:20:00;16.70;99.90
41262;DHT22;29629;52.532;13.352;2023-06-10T04:22:29;16.80;99.90
41262;DHT22;29629;52.532;13.352;2023-06-10T04:24:56;16.80;99.90
41262;DHT22;29629;52.532;13.352;2023-06-10T04:27:24;16.80;99.90
41262;DHT22;29629;52.532;13.352;2023-06-10T04:29:52;16.80;99.90
41262;DHT22;29629;52.532;13.352;2023-06-10T04:32:20;16.80;99.90
41262;DHT22;29629;52.532;13.352;2023-06-10T04:34:47;16.80;99.90
41262;DHT22;29629;52.532;13.352;2023-06-10T04:37:13;16.80;99.90
41262;DHT22;29629;52.532;13.352;2023-06-10T04:39:40;16.90;99.90
41262;DHT22;29629;52.532;13.352;2023-06-10T04:42:08;16.90;99.90
41262;DHT22;29629;52.532;13.352;2023-06-10T04:44:35;16.90;99.90
41262;DHT22;29629;52.532;13.352;2023-06-10T04:47:03;16.80;99.90
41262;DHT22;29629;52.532;13.352;2023-06-10T04:49:31;16.90;99.90
41262;DHT22;29629;52.532;13.352;2023-06-10T04:51:58;16.90;99.90
41262;DHT22;29629;52.532;13.352;2023-06-10T04:54:26;16.90;99.90
41262;DHT22;29629;52.532;13.352;2023-06-10T04:56:53;16.90;99.90
41262;DHT22;29629;52.532;13.352;2023-06-10T04:59:20;17.00;99.90
41262;DHT22;29629;52.532;13.352;2023-06-10T05:01:46;17.00;99.90
41262;DHT22;29629;52.532;13.352;2023-06-10T05:04:15;17.00;99.90
41262;DHT22;29629;52.532;13.352;2023-06-10T05:06:42;17.00;99.90
41262;DHT22;29629;52.532;13.352;2023-06-10T05:09:09;17.00;99.90
41262;DHT22;29629;52.532;13.352;2023-06-10T05:11:36;17.10;99.90
41262;DHT22;29629;52.532;13.352;2023-06-10T05:14:03;17.10;99.90
41262;DHT22;29629;52.532;13.352;2023-06-10T05:16:30;17.10;99.90
41262;DHT22;29629;52.532;13.352;2023-06-10T05:18:57;17.30;99.90
41262;DHT22;29629;52.532;13.352;2023-06-10T05:21:25;17.30;99.90
41262;DHT22;29629;52.532;13.352;2023-06-10T05:23:52;17.40;99.90
41262;DHT22;29629;52.532;13.352;2023-06-10T05:26:20;17.40;99.90
41262;DHT22;29629;52.532;13.352;2023-06-10T05:28:47;17.50;99.90
41262;DHT22;29629;52.532;13.352;2023-06-10T05:31:14;17.50;99.90
41262;DHT22;29629;52.532;13.352;2023-06-10T05:33:41;17.60;99.90
41262;DHT22;29629;52.532;13.352;2023-06-10T05:36:08;17.70;99.90
41262;DHT22;29629;52.532;13.352;2023-06-10T05:38:36;17.80;99.90
41262;DHT22;29629;52.532;13.352;2023-06-10T05:41:03;18.00;99.90
41262;DHT22;29629;52.532;13.352;2023-06-10T05:43:30;18.00;99.90
41262;DHT22;29629;52.532;13.352;2023-06-10T05:45:57;18.20;99.90
41262;DHT22;29629;52.532;13.352;2023-06-10T05:48:24;18.40;99.90
41262;DHT22;29629;52.532;13.352;2023-06-10T05:50:51;18.60;99.90
41262;DHT22;29629;52.532;13.352;2023-06-10T05:53:18;18.60;99.90
41262;DHT22;29629;52.532;13.352;2023-06-10T05:55:46;18.90;99.90
41262;DHT22;29629;52.532;13.352;2023-06-10T05:58:14;19.00;99.90
41262;DHT22;29629;52.532;13.352;2023-06-10T06:00:41;19.10;99.90
41262;DHT22;29629;52.532;13.352;2023-06-10T06:03:09;19.30;99.90
41262;DHT22;29629;52.532;13.352;2023-06-10T06:05:36;19.20;99.90
41262;DHT22;29629;52.532;13.352;2023-06-10T06:08:04;19.20;99.90
41262;DHT22;29629;52.532;13.352;2023-06-10T06:10:31;19.20;99.90
41262;DHT22;29629;52.532;13.352;2023-06-10T06:13:00;19.30;99.90
41262;DHT22;29629;52.532;13.352;2023-06-10T06:15:27;19.40;99.90
41262;DHT22;29629;52.532;13.352;2023-06-10T06:17:54;19.40;99.90
41262;DHT22;29629;52.532;13.352;2023-06-10T06:20:22;19.50;99.90
41262;DHT22;29629;52.532;13.352;2023-06-10T06:22:49;19.50;99.90
41262;DHT22;29629;52.532;13.352;2023-06-10T06:25:16;19.60;99.90
41262;DHT22;29629;52.532;13.352;2023-06-10T06:27:43;19.70;99.90
41262;DHT22;29629;52.532;13.352;2023-06-10T06:30:12;19.80;99.90
41262;DHT22;29629;52.532;13.352;2023-06-10T06:32:39;19.90;99.90
41262;DHT22;29629;52.532;13.352;2023-06-10T06:35:07;20.00;99.90
41262;DHT22;29629;52.532;13.352;2023-06-10T06:37:35;20.00;99.90
41262;DHT22;29629;52.532;13.352;2023-06-10T06:40:02;20.00;99.90
41262;DHT22;29629;52.532;13.352;2023-06-10T06:42:29;20.00;99.90
41262;DHT22;29629;52.532;13.352;2023-06-10T06:44:56;20.20;99.90
41262;DHT22;29629;52.532;13.352;2023-06-10T06:47:24;20.30;99.90
41262;DHT22;29629;52.532;13.352;2023-06-10T06:49:52;20.40;99.90
41262;DHT22;29629;52.532;13.352;2023-06-10T06:52:19;20.40;99.90
41262;DHT22;29629;52.532;13.352;2023-06-10T06:54:47;20.40;99.90
41262;DHT22;29629;52.532;13.352;2023-06-10T06:57:15;20.50;99.90
41262;DHT22;29629;52.532;13.352;2023-06-10T06:59:42;20.50;99.90
41262;DHT22;29629;52.532;13.352;2023-06-10T07:02:09;20.50;99.90
41262;DHT22;29629;52.532;13.352;2023-06-10T07:04:37;20.50;99.90
41262;DHT22;29629;52.532;13.352;2023-06-10T07:07:07;20.60;99.90
41262;DHT22;29629;52.532;13.352;2023-06-10T07:09:34;20.70;99.90
41262;DHT22;29629;52.532;13.352;2023-06-10T07:12:01;20.90;99.90
41262;DHT22;29629;52.532;13.352;2023-06-10T07:14:28;21.20;99.90
41262;DHT22;29629;52.532;13.352;2023-06-10T07:16:55;21.50;99.90
41262;DHT22;29629;52.532;13.352;2023-06-10T07:19:22;21.60;99.90
41262;DHT22;29629;52.532;13.352;2023-06-10T07:21:50;21.60;99.90
41262;DHT22;29629;52.532;13.352;2023-06-10T07:24:17;21.60;99.90
41262;DHT22;29629;52.532;13.352;2023-06-10T07:26:45;21.50;99.90
41262;DHT22;29629;52.532;13.352;2023-06-10T07:29:12;21.60;99.90
41262;DHT22;29629;52.532;13.352;2023-06-10T07:31:40;21.60;99.90
41262;DHT22;29629;52.532;13.352;2023-06-10T07:34:08;21.90;99.90
41262;DHT22;29629;52.532;13.352;2023-06-10T07:36:34;22.20;99.90
41262;DHT22;29629;52.532;13.352;2023-06-10T07:39:04;22.50;99.90
41262;DHT22;29629;52.532;13.352;2023-06-10T07:41:31;22.60;99.90
41262;DHT22;29629;52.532;13.352;2023-06-10T07:43:58;22.90;99.90
41262;DHT22;29629;52.532;13.352;2023-06-10T07:46:25;23.10;99.90
41262;DHT22;29629;52.532;13.352;2023-06-10T07:48:53;23.40;99.90
41262;DHT22;29629;52.532;13.352;2023-06-10T07:51:20;23.30;99.90
41262;DHT22;29629;52.532;13.352;2023-06-10T07:53:48;23.10;99.90
41262;DHT22;29629;52.532;13.352;2023-06-10T07:56:16;23.00;99.90
41262;DHT22;29629;52.532;13.352;2023-06-10T07:58:43;22.90;99.90
41262;DHT22;29629;52.532;13.352;2023-06-10T08:01:10;22.90;99.90
41262;DHT22;29629;52.532;13.352;2023-06-10T08:03:37;22.80;99.90
41262;DHT22;29629;52.532;13.352;2023-06-10T08:06:04;22.90;99.90
41262;DHT22;29629;52.532;13.352;2023-06-10T08:08:32;22.90;99.90
41262;DHT22;29629;52.532;13.352;2023-06-10T08:11:00;22.90;99.90
41262;DHT22;29629;52.532;13.352;2023-06-10T08:13:28;23.10;99.90
41262;DHT22;29629;52.532;13.352;2023-06-10T08:15:55;23.40;99.90
41262;DHT22;29629;52.532;13.352;2023-06-10T08:18:22;23.90;99.90
41262;DHT22;29629;52.532;13.352;2023-06-10T08:20:49;24.40;99.90
41262;DHT22;29629;52.532;13.352;2023-06-10T08:23:16;24.80;99.90
41262;DHT22;29629;52.532;13.352;2023-06-10T08:25:43;25.00;99.90
41262;DHT22;29629;52.532;13.352;2023-06-10T08:28:10;25.20;99.90
41262;DHT22;29629;52.532;13.352;2023-06-10T08:30:38;25.50;99.90
41262;DHT22;29629;52.532;13.352;2023-06-10T08:33:05;26.10;99.90
41262;DHT22;29629;52.532;13.352;2023-06-10T08:35:32;26.40;99.90
41262;DHT22;29629;52.532;13.352;2023-06-10T08:37:59;26.30;99.90
41262;DHT22;29629;52.532;13.352;2023-06-10T08:40:26;26.40;99.90
41262;DHT22;29629;52.532;13.352;2023-06-10T08:43:00;26.10;99.90
41262;DHT22;29629;52.532;13.352;2023-06-10T08:45:32;26.00;99.90
41262;DHT22;29629;52.532;13.352;2023-06-10T08:48:03;26.30;99.90
41262;DHT22;29629;52.532;13.352;2023-06-10T08:50:34;26.80;99.90
41262;DHT22;29629;52.532;13.352;2023-06-10T08:53:02;26.80;99.90
41262;DHT22;29629;52.532;13.352;2023-06-10T08:55:32;26.90;99.90
41262;DHT22;29629;52.532;13.352;2023-06-10T08:58:00;27.00;99.90
41262;DHT22;29629;52.532;13.352;2023-06-10T09:00:28;26.90;99.90
41262;DHT22;29629;52.532;13.352;2023-06-10T09:02:55;27.00;99.90
41262;DHT22;29629;52.532;13.352;2023-06-10T09:05:24;27.10;99.90
41262;DHT22;29629;52.532;13.352;2023-06-10T09:07:52;26.80;99.90
41262;DHT22;29629;52.532;13.352;2023-06-10T09:10:19;26.70;99.90
41262;DHT22;29629;52.532;13.352;2023-06-10T09:12:46;26.70;99.90
41262;DHT22;29629;52.532;13.352;2023-06-10T09:15:13;26.60;99.90
41262;DHT22;29629;52.532;13.352;2023-06-10T09:17:43;26.30;99.90
41262;DHT22;29629;52.532;13.352;2023-06-10T09:20:11;26.20;99.90
41262;DHT22;29629;52.532;13.352;2023-06-10T09:22:40;26.20;99.90
41262;DHT22;29629;52.532;13.352;2023-06-10T09:25:10;25.90;99.90
41262;DHT22;29629;52.532;13.352;2023-06-10T09:27:47;25.80;99.90
41262;DHT22;29629;52.532;13.352;2023-06-10T09:30:26;25.60;99.90
41262;DHT22;29629;52.532;13.352;2023-06-10T09:32:54;25.50;99.90
41262;DHT22;29629;52.532;13.352;2023-06-10T09:35:22;25.50;99.90
41262;DHT22;29629;52.532;13.352;2023-06-10T09:37:52;25.40;99.90
41262;DHT22;29629;52.532;13.352;2023-06-10T09:40:19;25.40;99.90
41262;DHT22;29629;52.532;13.352;2023-06-10T09:42:46;25.50;99.90
41262;DHT22;29629;52.532;13.352;2023-06-10T09:45:20;25.70;99.90
41262;DHT22;29629;52.532;13.352;2023-06-10T09:47:50;25.80;99.90
41262;DHT22;29629;52.532;13.352;2023-06-10T09:50:17;25.60;99.90
41262;DHT22;29629;52.532;13.352;2023-06-10T09:52:46;25.60;99.90
41262;DHT22;29629;52.532;13.352;2023-06-10T09:55:14;25.40;99.90
41262;DHT22;29629;52.532;13.352;2023-06-10T09:57:41;25.10;99.90
41262;DHT22;29629;52.532;13.352;2023-06-10T10:00:13;24.80;99.90
41262;DHT22;29629;52.532;13.352;2023-06-10T10:02:45;24.60;99.90
41262;DHT22;29629;52.532;13.352;2023-06-10T10:05:13;24.50;99.90
41262;DHT22;29629;52.532;13.352;2023-06-10T10:07:41;24.40;99.90
41262;DHT22;29629;52.532;13.352;2023-06-10T10:10:09;24.20;99.90
41262;DHT22;29629;52.532;13.352;2023-06-10T10:12:38;24.00;99.90
41262;DHT22;29629;52.532;13.352;2023-06-10T10:15:06;23.80;99.90
41262;DHT22;29629;52.532;13.352;2023-06-10T10:17:35;23.90;99.90
41262;DHT22;29629;52.532;13.352;2023-06-10T10:20:09;23.80;99.90
41262;DHT22;29629;52.532;13.352;2023-06-10T10:22:40;23.80;99.90
41262;DHT22;29629;52.532;13.352;2023-06-10T10:25:11;23.80;99.90
41262;DHT22;29629;52.532;13.352;2023-06-10T10:27:44;23.80;99.90
41262;DHT22;29629;52.532;13.352;2023-06-10T10:30:14;23.80;99.90
41262;DHT22;29629;52.532;13.352;2023-06-10T10:32:50;23.70;99.90
41262;DHT22;29629;52.532;13.352;2023-06-10T10:35:21;23.60;99.90
41262;DHT22;29629;52.532;13.352;2023-06-10T10:37:50;23.70;99.90
41262;DHT22;29629;52.532;13.352;2023-06-10T10:40:19;23.70;99.90
41262;DHT22;29629;52.532;13.352;2023-06-10T10:42:49;23.70;99.90
41262;DHT22;29629;52.532;13.352;2023-06-10T10:45:21;23.70;99.90
41262;DHT22;29629;52.532;13.352;2023-06-10T10:47:54;23.60;99.90
41262;DHT22;29629;52.532;13.352;2023-06-10T10:50:23;23.60;99.90
41262;DHT22;29629;52.532;13.352;2023-06-10T10:52:54;23.50;99.90
41262;DHT22;29629;52.532;13.352;2023-06-10T10:55:22;23.30;99.90
41262;DHT22;29629;52.532;13.352;2023-06-10T10:57:58;23.30;99.90
41262;DHT22;29629;52.532;13.352;2023-06-10T11:00:29;23.30;99.90
41262;DHT22;29629;52.532;13.352;2023-06-10T11:03:06;23.50;99.90
41262;DHT22;29629;52.532;13.352;2023-06-10T11:05:38;23.80;99.90
41262;DHT22;29629;52.532;13.352;2023-06-10T11:08:07;24.10;99.90
41262;DHT22;29629;52.532;13.352;2023-06-10T11:10:35;24.50;99.90
41262;DHT22;29629;52.532;13.352;2023-06-10T11:13:09;25.00;99.90
41262;DHT22;29629;52.532;13.352;2023-06-10T11:15:39;25.50;99.90
41262;DHT22;29629;52.532;13.352;2023-06-10T11:18:21;25.80;99.90
41262;DHT22;29629;52.532;13.352;2023-06-10T11:20:57;25.70;99.90
41262;DHT22;29629;52.532;13.352;2023-06-10T11:23:42;25.70;99.90
41262;DHT22;29629;52.532;13.352;2023-06-10T11:26:10;25.80;99.90
41262;DHT22;29629;52.532;13.352;2023-06-10T11:28:39;26.10;99.90
41262;DHT22;29629;52.532;13.352;2023-06-10T11:31:06;26.30;99.90
41262;DHT22;29629;52.532;13.352;2023-06-10T11:33:33;26.30;99.90
41262;DHT22;29629;52.532;13.352;2023-06-10T11:36:00;26.30;99.90
41262;DHT22;29629;52.532;13.352;2023-06-10T11:38:28;26.30;99.90
41262;DHT22;29629;52.532;13.352;2023-06-10T11:40:56;26.40;99.90
41262;DHT22;29629;52.532;13.352;2023-06-10T11:43:23;26.40;99.90
41262;DHT22;29629;52.532;13.352;2023-06-10T11:45:55;26.50;99.90
41262;DHT22;29629;52.532;13.352;2023-06-10T11:48:22;27.10;99.90
41262;DHT22;29629;52.532;13.352;2023-06-10T11:50:49;28.50;99.90
41262;DHT22;29629;52.532;13.352;2023-06-10T11:53:19;29.50;99.90
41262;DHT22;29629;52.532;13.352;2023-06-10T11:55:47;30.10;99.90
41262;DHT22;29629;52.532;13.352;2023-06-10T11:58:15;30.20;99.90
41262;DHT22;29629;52.532;13.352;2023-06-10T12:00:49;30.70;99.90
41262;DHT22;29629;52.532;13.352;2023-06-10T12:03:18;30.90;99.90
41262;DHT22;29629;52.532;13.352;2023-06-10T12:05:57;31.30;99.90
41262;DHT22;29629;52.532;13.352;2023-06-10T12:08:25;31.60;99.90
41262;DHT22;29629;52.532;13.352;2023-06-10T12:10:53;31.90;99.90
41262;DHT22;29629;52.532;13.352;2023-06-10T12:13:20;32.20;99.90
41262;DHT22;29629;52.532;13.352;2023-06-10T12:15:47;32.30;99.90
41262;DHT22;29629;52.532;13.352;2023-06-10T12:18:19;32.50;99.90
41262;DHT22;29629;52.532;13.352;2023-06-10T12:20:47;32.50;99.90
41262;DHT22;29629;52.532;13.352;2023-06-10T12:23:16;32.30;99.90
41262;DHT22;29629;52.532;13.352;2023-06-10T12:25:52;32.70;99.90
41262;DHT22;29629;52.532;13.352;2023-06-10T12:28:21;32.50;99.90
41262;DHT22;29629;52.532;13.352;2023-06-10T12:30:48;32.20;99.90
41262;DHT22;29629;52.532;13.352;2023-06-10T12:33:21;32.30;99.90
41262;DHT22;29629;52.532;13.352;2023-06-10T12:35:48;32.40;99.90
41262;DHT22;29629;52.532;13.352;2023-06-10T12:38:21;32.10;99.90
41262;DHT22;29629;52.532;13.352;2023-06-10T12:40:50;32.30;99.90
41262;DHT22;29629;52.532;13.352;2023-06-10T12:43:19;32.60;99.90
41262;DHT22;29629;52.532;13.352;2023-06-10T12:45:47;32.90;99.90
41262;DHT22;29629;52.532;13.352;2023-06-10T12:48:19;32.80;99.90
41262;DHT22;29629;52.532;13.352;2023-06-10T12:50:51;32.90;99.90
41262;DHT22;29629;52.532;13.352;2023-06-10T12:53:19;32.70;99.40
41262;DHT22;29629;52.532;13.352;2023-06-10T12:55:46;32.30;99.90
41262;DHT22;29629;52.532;13.352;2023-06-10T12:58:14;32.20;99.90
41262;DHT22;29629;52.532;13.352;2023-06-10T13:00:41;32.10;99.90
41262;DHT22;29629;52.532;13.352;2023-06-10T13:03:09;31.60;99.90
41262;DHT22;29629;52.532;13.352;2023-06-10T13:05:38;31.80;99.90
41262;DHT22;29629;52.532;13.352;2023-06-10T13:08:05;31.60;99.90
41262;DHT22;29629;52.532;13.352;2023-06-10T13:10:33;31.10;99.90
41262;DHT22;29629;52.532;13.352;2023-06-10T13:13:00;30.80;99.90
41262;DHT22;29629;52.532;13.352;2023-06-10T13:15:28;30.60;99.90
41262;DHT22;29629;52.532;13.352;2023-06-10T13:17:55;30.60;99.90
41262;DHT22;29629;52.532;13.352;2023-06-10T13:20:22;30.60;99.90
41262;DHT22;29629;52.532;13.352;2023-06-10T13:22:50;30.50;99.90
41262;DHT22;29629;52.532;13.352;2023-06-10T13:25:17;30.40;99.90
41262;DHT22;29629;52.532;13.352;2023-06-10T13:27:44;30.30;99.90
41262;DHT22;29629;52.532;13.352;2023-06-10T13:30:12;30.10;99.90
41262;DHT22;29629;52.532;13.352;2023-06-10T13:32:39;29.90;99.90
41262;DHT22;29629;52.532;13.352;2023-06-10T13:35:06;30.00;99.90
41262;DHT22;29629;52.532;13.352;2023-06-10T13:37:33;29.80;99.90
41262;DHT22;29629;52.532;13.352;2023-06-10T13:40:02;29.70;99.90
41262;DHT22;29629;52.532;13.352;2023-06-10T13:42:30;29.80;99.90
41262;DHT22;29629;52.532;13.352;2023-06-10T13:44:57;29.70;99.90
41262;DHT22;29629;52.532;13.352;2023-06-10T13:47:24;29.60;99.90
41262;DHT22;29629;52.532;13.352;2023-06-10T13:49:51;29.50;99.90
41262;DHT22;29629;52.532;13.352;2023-06-10T13:52:18;29.20;99.90
41262;DHT22;29629;52.532;13.352;2023-06-10T13:54:45;29.20;99.90
41262;DHT22;29629;52.532;13.352;2023-06-10T13:57:13;28.90;99.90
41262;DHT22;29629;52.532;13.352;2023-06-10T13:59:40;28.90;99.90
41262;DHT22;29629;52.532;13.352;2023-06-10T14:02:07;28.90;99.90
41262;DHT22;29629;52.532;13.352;2023-06-10T14:04:34;28.80;99.90
41262;DHT22;29629;52.532;13.352;2023-06-10T14:07:01;28.80;99.90
41262;DHT22;29629;52.532;13.352;2023-06-10T14:09:28;29.10;99.90
41262;DHT22;29629;52.532;13.352;2023-06-10T14:11:55;29.00;99.90
41262;DHT22;29629;52.532;13.352;2023-06-10T14:14:23;28.80;99.90
41262;DHT22;29629;52.532;13.352;2023-06-10T14:16:50;28.80;99.90
41262;DHT22;29629;52.532;13.352;2023-06-10T14:19:17;28.80;99.90
41262;DHT22;29629;52.532;13.352;2023-06-10T14:21:44;28.80;99.90
41262;DHT22;29629;52.532;13.352;2023-06-10T14:24:12;28.60;99.90
41262;DHT22;29629;52.532;13.352;2023-06-10T14:26:39;28.60;99.90
41262;DHT22;29629;52.532;13.352;2023-06-10T14:29:06;28.30;99.90
41262;DHT22;29629;52.532;13.352;2023-06-10T14:31:35;28.40;99.90
41262;DHT22;29629;52.532;13.352;2023-06-10T14:34:02;28.20;99.90
41262;DHT22;29629;52.532;13.352;2023-06-10T14:36:31;28.10;99.90
41262;DHT22;29629;52.532;13.352;2023-06-10T14:38:58;28.00;99.90
41262;DHT22;29629;52.532;13.352;2023-06-10T14:41:25;27.90;99.90
41262;DHT22;29629;52.532;13.352;2023-06-10T14:43:52;27.90;99.90
41262;DHT22;29629;52.532;13.352;2023-06-10T14:46:19;28.00;99.90
41262;DHT22;29629;52.532;13.352;2023-06-10T14:48:48;28.00;99.90
41262;DHT22;29629;52.532;13.352;2023-06-10T14:51:16;28.00;99.90
41262;DHT22;29629;52.532;13.352;2023-06-10T14:53:43;27.90;99.90
41262;DHT22;29629;52.532;13.352;2023-06-10T14:56:11;27.80;99.90
41262;DHT22;29629;52.532;13.352;2023-06-10T14:58:37;27.80;99.90
41262;DHT22;29629;52.532;13.352;2023-06-10T15:01:04;27.70;99.90
41262;DHT22;29629;52.532;13.352;2023-06-10T15:03:31;27.80;99.90
41262;DHT22;29629;52.532;13.352;2023-06-10T15:06:00;27.80;99.90
41262;DHT22;29629;52.532;13.352;2023-06-10T15:08:27;27.70;99.90
41262;DHT22;29629;52.532;13.352;2023-06-10T15:10:54;27.60;99.90
41262;DHT22;29629;52.532;13.352;2023-06-10T15:13:23;27.70;99.90
41262;DHT22;29629;52.532;13.352;2023-06-10T15:15:49;27.70;99.90
41262;DHT22;29629;52.532;13.352;2023-06-10T15:18:16;27.70;99.90
41262;DHT22;29629;52.532;13.352;2023-06-10T15:20:43;27.60;99.90